createdAt,value
2023-11-24T05:35:28.836Z,25.02
2023-11-24T05:38:31.533Z,22.35
2023-11-24T05:41:34.025Z,20.60
2023-11-24T05:44:36.534Z,20.70
2023-11-24T05:47:39.407Z,21.30
2023-11-24T05:50:41.922Z,19.75
2023-11-24T05:53:44.417Z,20.70
2023-11-24T05:56:47.024Z,20.60
2023-11-24T05:59:50.771Z,19.48
2023-11-24T06:02:53.344Z,20.58
2023-11-24T06:05:56.141Z,19.30
2023-11-24T06:08:58.712Z,19.92
2023-11-24T06:12:03.054Z,21.30
2023-11-24T06:15:06.899Z,19.73
2023-11-24T06:18:09.474Z,20.33
2023-11-24T06:21:13.602Z,20.58
2023-11-24T06:24:16.555Z,18.83
2023-11-24T06:27:19.166Z,21.80
2023-11-24T06:30:21.662Z,19.67
2023-11-24T06:33:25.591Z,20.95
2023-11-24T06:36:28.209Z,20.00
2023-11-24T06:39:30.845Z,19.27
2023-11-24T06:42:33.526Z,19.52
2023-11-24T06:45:36.150Z,19.75
2023-11-24T06:48:40.584Z,17.70
2023-11-24T06:51:43.145Z,19.17
2023-11-24T06:54:46.139Z,19.92
2023-11-24T06:57:50.000Z,20.08
2023-11-24T07:00:52.826Z,18.02
2023-11-24T07:03:55.757Z,19.90
2023-11-24T07:06:59.529Z,21.10
2023-11-24T07:10:03.774Z,20.65
2023-11-24T07:13:08.562Z,20.33
2023-11-24T07:16:11.281Z,20.48
2023-11-24T07:19:13.921Z,19.35
2023-11-24T07:22:17.034Z,18.17
2023-11-24T07:25:19.544Z,18.58
2023-11-24T07:28:22.121Z,17.92
2023-11-24T07:31:25.932Z,23.55
2023-11-24T07:34:28.587Z,26.58
2023-11-24T07:37:31.080Z,24.63
2023-11-24T07:40:33.842Z,17.05
2023-11-24T07:43:36.913Z,20.58
2023-11-24T07:46:39.675Z,21.52
2023-11-24T07:49:42.630Z,17.70
2023-11-24T07:52:45.393Z,30.08
2023-11-24T07:55:48.343Z,32.22
2023-11-24T07:58:51.021Z,28.00
2023-11-24T08:01:53.700Z,20.15
2023-11-24T08:04:59.890Z,22.65
2023-11-24T08:08:02.589Z,19.55
2023-11-24T08:11:06.184Z,24.55
2023-11-24T08:14:08.770Z,22.45
2023-11-24T08:17:11.306Z,27.02
2023-11-24T08:20:14.794Z,28.17
2023-11-24T08:23:18.591Z,21.42
2023-11-24T08:26:22.510Z,19.37
2023-11-24T08:29:25.658Z,17.55
2023-11-24T08:32:28.181Z,19.08
2023-11-24T08:35:30.899Z,18.77
2023-11-24T08:38:33.400Z,21.15
2023-11-24T08:41:40.546Z,21.17
2023-11-24T08:44:43.528Z,20.30
2023-11-24T08:47:47.984Z,19.58
2023-11-24T08:50:50.682Z,20.10
2023-11-24T08:53:53.256Z,18.98
2023-11-24T08:56:55.763Z,19.50
2023-11-24T08:59:58.992Z,24.02
2023-11-24T09:03:03.586Z,11.12
2023-11-24T09:06:07.376Z,10.00
2023-11-24T09:09:10.294Z,9.55
2023-11-24T09:12:13.988Z,8.73
2023-11-24T09:15:16.814Z,7.57
2023-11-24T09:18:20.397Z,5.47
2023-11-24T09:21:22.989Z,4.10
2023-11-24T09:24:25.592Z,3.90
2023-11-24T09:27:28.092Z,3.00
2023-11-24T09:30:31.143Z,1.70
2023-11-24T09:33:33.640Z,1.62
2023-11-24T09:36:36.264Z,0.70
2023-11-24T09:39:38.824Z,0.60
2023-11-24T09:42:41.866Z,0.70
2023-11-24T09:45:44.372Z,1.05
2023-11-24T09:48:47.496Z,0.60
2023-11-24T09:51:50.168Z,0.40
2023-11-24T09:54:54.815Z,0.77
2023-11-24T10:01:14.986Z,0.40
2023-11-24T10:04:17.563Z,0.50
2023-11-24T10:07:23.464Z,0.50
2023-11-24T10:10:27.455Z,0.50
2023-11-24T10:13:30.100Z,0.50
2023-11-24T10:16:32.942Z,0.60
2023-11-24T10:19:37.167Z,0.30
2023-11-24T10:22:40.221Z,0.30
2023-11-24T10:25:42.766Z,0.60
2023-11-24T10:28:46.127Z,1.65
2023-11-24T10:31:48.679Z,0.88
2023-11-24T10:34:52.635Z,0.98
2023-11-24T10:37:55.555Z,0.68
2023-11-24T10:41:00.782Z,0.37
2023-11-24T10:44:05.292Z,0.32
2023-11-24T10:47:09.846Z,0.55
2023-11-24T10:50:14.549Z,1.03
2023-11-24T10:53:33.244Z,1.05
2023-11-24T10:56:38.782Z,0.57
2023-11-24T10:59:42.841Z,1.00
2023-11-24T11:02:47.909Z,0.52
2023-11-24T11:06:18.677Z,0.50
2023-11-24T11:09:30.748Z,0.50
2023-11-24T11:12:40.760Z,1.33
2023-11-24T11:15:43.473Z,0.90
2023-11-24T11:18:46.188Z,1.15
2023-11-24T11:21:54.193Z,1.42
2023-11-24T11:25:16.115Z,0.68
2023-11-24T11:28:18.963Z,0.55
2023-11-24T11:31:35.607Z,0.45
2023-11-24T11:34:38.254Z,1.00
2023-11-24T11:37:42.562Z,0.80
2023-11-24T11:40:45.801Z,0.85
2023-11-24T11:43:55.446Z,0.40
2023-11-24T11:47:24.184Z,1.85
2023-11-24T11:50:26.932Z,1.85
2023-11-24T11:53:31.153Z,2.60
2023-11-24T11:56:34.378Z,1.20
2023-11-24T11:59:37.777Z,0.93
2023-11-24T12:02:40.707Z,0.93
2023-11-24T12:05:43.961Z,1.00
2023-11-24T12:08:46.476Z,0.95
2023-11-24T12:11:48.934Z,0.80
2023-11-24T12:14:55.778Z,1.02
2023-11-24T12:17:58.884Z,0.70
2023-11-24T12:21:01.739Z,1.33
2023-11-24T12:24:15.059Z,2.60
2023-11-24T12:27:19.703Z,1.12
2023-11-24T12:30:24.113Z,7.20
2023-11-24T12:33:26.711Z,1.80
2023-11-24T12:36:29.301Z,1.08
2023-11-24T12:39:32.146Z,1.30
2023-11-24T12:42:34.732Z,1.40
2023-11-24T12:45:37.251Z,1.20
2023-11-24T12:48:41.463Z,2.17
2023-11-24T12:51:47.910Z,0.45
2023-11-24T12:54:51.670Z,1.02
2023-11-24T12:57:55.206Z,1.62
2023-11-24T13:00:58.582Z,1.00
2023-11-24T13:04:01.461Z,4.57
2023-11-24T13:07:07.525Z,2.15
2023-11-24T13:10:14.625Z,1.35
2023-11-24T13:13:17.712Z,4.00
2023-11-24T13:16:20.629Z,3.53
2023-11-24T13:19:24.395Z,2.67
2023-11-24T13:22:27.310Z,1.58
2023-11-24T13:25:30.750Z,2.08
2023-11-24T13:28:33.568Z,1.00
2023-11-24T13:31:42.510Z,2.85
2023-11-24T13:34:45.597Z,0.95
2023-11-24T13:37:51.600Z,2.72
2023-11-24T13:40:56.062Z,2.90
2023-11-24T13:43:59.233Z,1.12
2023-11-24T13:47:04.470Z,1.73
2023-11-24T13:50:08.744Z,1.35
2023-11-24T13:53:13.256Z,1.58
2023-11-24T13:56:16.067Z,1.52
2023-11-24T13:59:18.600Z,1.00
2023-11-24T14:02:21.497Z,2.70
2023-11-24T14:05:24.266Z,1.40
2023-11-24T14:08:26.849Z,1.20
2023-11-24T14:11:31.944Z,1.25
2023-11-24T14:14:34.602Z,1.12
2023-11-24T14:17:37.303Z,1.50
2023-11-24T14:20:41.430Z,2.00
2023-11-24T14:23:44.042Z,2.12
2023-11-24T14:26:46.831Z,1.77
2023-11-24T14:29:49.315Z,2.78
2023-11-24T14:32:52.679Z,2.80
2023-11-24T14:35:56.414Z,2.40
2023-11-24T14:38:59.079Z,1.70
2023-11-24T14:42:02.749Z,1.37
2023-11-24T14:45:05.826Z,6.15
2023-11-24T14:48:10.117Z,9.02
2023-11-24T14:51:14.101Z,15.95
2023-11-24T14:54:17.608Z,10.07
2023-11-24T14:57:20.270Z,5.22
2023-11-24T15:00:35.074Z,4.03
2023-11-24T15:03:38.105Z,4.25
2023-11-24T15:06:41.619Z,2.78
2023-11-24T15:09:46.688Z,2.25
2023-11-24T15:12:49.426Z,2.35
2023-11-24T15:15:52.025Z,2.70
2023-11-24T15:18:54.553Z,4.53
2023-11-24T15:21:57.496Z,9.43
2023-11-24T15:25:00.383Z,8.32
2023-11-24T15:28:06.041Z,8.63
2023-11-24T15:31:08.594Z,7.00
2023-11-24T15:34:11.212Z,6.75
2023-11-24T15:37:13.759Z,2.83
2023-11-24T15:40:22.210Z,2.17
2023-11-24T15:43:25.451Z,1.70
2023-11-24T15:46:34.442Z,1.30
2023-11-24T15:49:40.177Z,1.50
2023-11-24T15:52:45.363Z,1.10
2023-11-24T15:55:50.715Z,2.60
2023-11-24T15:58:56.529Z,4.03
2023-11-24T16:02:01.760Z,2.33
2023-11-24T16:05:07.731Z,4.15
2023-11-24T16:08:11.948Z,3.50
